createdAt,value
2019-05-01T00:00:55.416Z,13.04
2019-05-01T00:01:55.298Z,13.03
2019-05-01T00:02:55.298Z,13.00
2019-05-01T00:03:55.180Z,13.07
2019-05-01T00:04:55.179Z,12.99
2019-05-01T00:05:55.061Z,13.02
2019-05-01T00:06:55.059Z,12.97
2019-05-01T00:07:54.942Z,12.96
2019-05-01T00:08:54.941Z,12.88
2019-05-01T00:09:54.824Z,12.97
2019-05-01T00:10:54.822Z,12.97
2019-05-01T00:11:54.705Z,12.97
2019-05-01T00:12:54.702Z,13.00
2019-05-01T00:13:54.586Z,12.95
2019-05-01T00:14:54.584Z,12.97
2019-05-01T00:15:54.467Z,12.95
2019-05-01T00:16:54.464Z,12.89
2019-05-01T00:17:54.352Z,12.99
2019-05-01T00:18:54.345Z,13.02
2019-05-01T00:19:54.347Z,12.99
2019-05-01T00:20:54.227Z,13.02
2019-05-01T00:21:54.226Z,13.02
2019-05-01T00:22:54.109Z,13.00
2019-05-01T00:23:54.110Z,12.97
2019-05-01T00:24:53.992Z,12.97
2019-05-01T00:25:53.989Z,12.99
2019-05-01T00:26:53.873Z,13.00
2019-05-01T00:27:53.870Z,12.92
2019-05-01T00:28:53.753Z,12.87
2019-05-01T00:29:53.750Z,12.88
2019-05-01T00:30:53.637Z,12.96
2019-05-01T00:31:53.633Z,12.88
2019-05-01T00:32:53.548Z,12.87
2019-05-01T00:33:53.512Z,12.96
2019-05-01T00:34:53.399Z,12.89
2019-05-01T00:35:53.393Z,12.84
2019-05-01T00:36:53.395Z,12.84
2019-05-01T00:37:53.275Z,12.88
2019-05-01T00:38:53.279Z,12.82
2019-05-01T00:39:53.156Z,12.85
2019-05-01T00:40:53.156Z,12.85
2019-05-01T00:41:53.038Z,12.85
2019-05-01T00:42:53.036Z,12.85
2019-05-01T00:43:52.922Z,12.85
2019-05-01T00:44:52.917Z,12.88
2019-05-01T00:45:52.804Z,12.82
2019-05-01T00:46:52.801Z,12.88
2019-05-01T00:47:52.683Z,12.85
2019-05-01T00:48:52.702Z,12.87
2019-05-01T00:49:52.564Z,12.78
2019-05-01T00:50:52.562Z,12.87
2019-05-01T00:51:52.444Z,12.84
2019-05-01T00:52:52.441Z,12.78
2019-05-01T00:53:52.325Z,12.81
2019-05-01T00:54:52.323Z,12.81
2019-05-01T00:55:52.325Z,12.82
2019-05-01T00:56:52.204Z,12.79
2019-05-01T00:57:52.203Z,12.84
2019-05-01T00:58:52.085Z,12.81
2019-05-01T00:59:52.084Z,12.78
2019-05-01T01:00:51.968Z,12.82
2019-05-01T01:01:51.966Z,12.84
2019-05-01T01:02:51.849Z,12.79
2019-05-01T01:03:51.847Z,12.81
2019-05-01T01:04:51.730Z,12.78
2019-05-01T01:05:51.728Z,12.82
2019-05-01T01:06:51.614Z,12.81
2019-05-01T01:07:51.609Z,12.81
2019-05-01T01:08:51.493Z,12.82
2019-05-01T01:09:51.489Z,12.81
2019-05-01T01:10:51.376Z,12.79
2019-05-01T01:11:51.376Z,12.75
2019-05-01T01:12:51.254Z,12.77
2019-05-01T01:13:51.250Z,12.71
2019-05-01T01:14:51.252Z,12.75
2019-05-01T01:15:51.133Z,12.75
2019-05-01T01:16:51.133Z,12.75
2019-05-01T01:17:51.015Z,12.75
2019-05-01T01:18:51.014Z,12.74
2019-05-01T01:19:50.897Z,12.78
2019-05-01T01:20:50.894Z,12.74
2019-05-01T01:21:50.782Z,12.84
2019-05-01T01:22:50.776Z,12.74
2019-05-01T01:23:50.660Z,12.75
2019-05-01T01:24:50.657Z,12.79
2019-05-01T01:25:50.540Z,12.71
2019-05-01T01:26:50.539Z,12.77
2019-05-01T01:27:50.424Z,12.77
2019-05-01T01:28:50.420Z,12.70
2019-05-01T01:29:50.304Z,12.75
2019-05-01T01:30:56.411Z,12.77
2019-05-01T01:31:50.186Z,12.74
2019-05-01T01:32:50.182Z,12.71
2019-05-01T01:33:50.182Z,12.74
2019-05-01T01:34:50.066Z,12.74
2019-05-01T01:35:50.062Z,12.70
2019-05-01T01:36:49.946Z,12.63
2019-05-01T01:37:49.944Z,12.66
2019-05-01T01:38:49.943Z,12.71
2019-05-01T01:39:49.824Z,12.70
2019-05-01T01:40:49.708Z,12.66
2019-05-01T01:41:49.705Z,12.71
2019-05-01T01:42:49.590Z,12.69
2019-05-01T01:43:49.586Z,12.62
2019-05-01T01:44:49.470Z,12.63
2019-05-01T01:45:49.467Z,12.66
2019-05-01T01:46:49.350Z,12.62
2019-05-01T01:47:49.348Z,12.60
2019-05-01T01:48:49.231Z,12.60
2019-05-01T01:49:49.232Z,12.60
2019-05-01T01:50:49.112Z,12.56
2019-05-01T01:51:49.110Z,12.63
2019-05-01T01:52:49.110Z,12.57
2019-05-01T01:53:48.991Z,12.66
2019-05-01T01:54:48.991Z,12.64
2019-05-01T01:55:48.873Z,12.52
2019-05-01T01:56:48.872Z,12.54
2019-05-01T01:57:48.755Z,12.59
2019-05-01T01:58:48.754Z,12.67
2019-05-01T01:59:48.639Z,12.67
2019-05-01T02:00:48.635Z,12.59
2019-05-01T02:01:48.517Z,12.57
2019-05-01T02:02:48.516Z,12.63
2019-05-01T02:03:48.399Z,12.60
2019-05-01T02:04:48.396Z,12.56
2019-05-01T02:05:48.280Z,12.57
2019-05-01T02:06:48.330Z,12.56
2019-05-01T02:07:48.164Z,12.54
2019-05-01T02:08:56.245Z,12.62
2019-05-01T02:09:48.042Z,12.54
2019-05-01T02:10:48.039Z,12.60
2019-05-01T02:11:48.040Z,12.62
2019-05-01T02:12:47.920Z,12.57
2019-05-01T02:13:47.921Z,12.54
2019-05-01T02:14:47.803Z,12.59
2019-05-01T02:15:47.802Z,12.51
2019-05-01T02:16:47.684Z,12.57
2019-05-01T02:17:47.682Z,12.60
2019-05-01T02:18:47.566Z,12.56
2019-05-01T02:19:47.564Z,12.57
2019-05-01T02:20:47.447Z,12.48
2019-05-01T02:21:47.446Z,12.49
2019-05-01T02:22:47.327Z,12.49
2019-05-01T02:23:47.325Z,12.46
2019-05-01T02:24:47.210Z,12.39
2019-05-01T02:25:47.206Z,12.44
2019-05-01T02:26:47.091Z,12.44
2019-05-01T02:27:47.087Z,12.49
2019-05-01T02:28:46.971Z,12.48
2019-05-01T02:29:46.968Z,12.44
2019-05-01T02:30:46.854Z,12.46
2019-05-01T02:31:46.857Z,12.39
2019-05-01T02:32:46.853Z,12.52
2019-05-01T02:33:46.733Z,12.48
2019-05-01T02:34:46.732Z,12.45
2019-05-01T02:35:46.613Z,12.44
2019-05-01T02:36:46.613Z,12.44
2019-05-01T02:37:46.495Z,12.44
2019-05-01T02:38:46.493Z,12.52
2019-05-01T02:39:46.377Z,12.45
2019-05-01T02:40:46.377Z,12.46
2019-05-01T02:41:46.257Z,12.45
2019-05-01T02:42:46.256Z,12.51
2019-05-01T02:43:46.139Z,12.48
2019-05-01T02:44:46.138Z,12.42
2019-05-01T02:45:46.025Z,12.39
2019-05-01T02:46:46.016Z,12.38
2019-05-01T02:47:45.904Z,12.44
2019-05-01T02:48:45.898Z,12.49
2019-05-01T02:49:45.781Z,12.44
2019-05-01T02:50:45.783Z,12.41
2019-05-01T02:51:45.663Z,12.37
2019-05-01T02:52:45.661Z,12.31
2019-05-01T02:53:45.663Z,12.46
2019-05-01T02:54:45.542Z,12.41
2019-05-01T02:55:45.541Z,12.33
2019-05-01T02:56:45.425Z,12.37
2019-05-01T02:57:45.422Z,12.33
2019-05-01T02:58:45.305Z,12.34
2019-05-01T02:59:45.303Z,12.38
2019-05-01T03:00:45.186Z,12.39
2019-05-01T03:01:47.673Z,12.38
2019-05-01T03:02:45.077Z,12.37
2019-05-01T03:03:45.066Z,12.38
2019-05-01T03:04:44.952Z,12.38
2019-05-01T03:05:44.947Z,12.31
2019-05-01T03:06:44.830Z,12.38
2019-05-01T03:07:44.829Z,12.31
2019-05-01T03:08:44.712Z,12.33
2019-05-01T03:09:44.708Z,12.33
2019-05-01T03:10:44.592Z,12.29
2019-05-01T03:11:44.640Z,12.31
2019-05-01T03:12:44.590Z,12.31
2019-05-01T03:13:44.471Z,12.31
2019-05-01T03:14:44.469Z,12.31
2019-05-01T03:15:44.353Z,12.31
2019-05-01T03:16:44.352Z,12.27
2019-05-01T03:17:44.234Z,12.33
2019-05-01T03:18:44.233Z,12.31
2019-05-01T03:19:44.114Z,12.30
2019-05-01T03:20:44.121Z,12.31
2019-05-01T03:21:43.997Z,12.29
2019-05-01T03:22:43.994Z,12.26
2019-05-01T03:23:43.882Z,12.23
2019-05-01T03:24:43.875Z,12.23
2019-05-01T03:25:43.759Z,12.27
2019-05-01T03:26:43.758Z,12.26
2019-05-01T03:27:43.644Z,12.24
2019-05-01T03:28:43.659Z,12.23
2019-05-01T03:29:43.524Z,12.20
2019-05-01T03:30:43.520Z,12.23
2019-05-01T03:31:43.565Z,12.24
2019-05-01T03:32:43.402Z,12.21
2019-05-01T03:33:43.305Z,12.24
2019-05-01T03:34:43.287Z,12.19
2019-05-01T03:35:43.280Z,12.13
2019-05-01T03:36:43.163Z,12.27
2019-05-01T03:37:43.161Z,12.21
2019-05-01T03:38:43.044Z,12.15
2019-05-01T03:39:43.047Z,12.27
2019-05-01T03:40:42.930Z,12.27
2019-05-01T03:41:42.930Z,12.19
2019-05-01T03:42:42.811Z,12.20
2019-05-01T03:43:42.808Z,12.23
2019-05-01T03:44:42.693Z,12.13
2019-05-01T03:45:42.685Z,12.19
2019-05-01T03:46:42.570Z,12.16
2019-05-01T03:47:42.572Z,12.21
2019-05-01T03:48:42.458Z,12.13
2019-05-01T03:49:42.446Z,12.20
2019-05-01T03:50:46.217Z,12.13
2019-05-01T03:51:42.328Z,12.20
2019-05-01T03:52:42.212Z,12.11
2019-05-01T03:53:42.210Z,12.09
2019-05-01T03:54:42.092Z,12.20
2019-05-01T03:55:42.089Z,12.12
2019-05-01T03:56:42.094Z,12.13
2019-05-01T03:57:41.976Z,12.19
2019-05-01T03:58:41.972Z,12.11
2019-05-01T03:59:41.855Z,12.15
2019-05-01T04:00:41.852Z,12.09
2019-05-01T04:01:41.735Z,12.06
2019-05-01T04:02:41.738Z,12.05
2019-05-01T04:03:41.616Z,12.04
2019-05-01T04:04:41.614Z,12.13
2019-05-01T04:05:41.499Z,12.08
2019-05-01T04:06:41.496Z,12.04
2019-05-01T04:07:41.379Z,12.05
2019-05-01T04:08:41.377Z,12.05
2019-05-01T04:09:41.260Z,12.06
2019-05-01T04:10:41.258Z,12.06
2019-05-01T04:11:41.140Z,12.01
2019-05-01T04:12:41.138Z,12.01
2019-05-01T04:13:41.022Z,11.99
2019-05-01T04:14:41.021Z,12.02
2019-05-01T04:15:40.908Z,12.01
2019-05-01T04:16:40.902Z,11.96
2019-05-01T04:17:40.903Z,12.01
2019-05-01T04:18:40.787Z,12.09
2019-05-01T04:19:40.783Z,12.06
2019-05-01T04:20:40.664Z,12.09
2019-05-01T04:21:40.664Z,11.96
2019-05-01T04:22:40.544Z,11.93
2019-05-01T04:23:40.543Z,11.97
2019-05-01T04:24:40.432Z,12.05
2019-05-01T04:25:40.425Z,11.93
2019-05-01T04:26:40.307Z,12.01
2019-05-01T04:27:40.307Z,11.99
2019-05-01T04:28:40.189Z,11.96
2019-05-01T04:29:40.188Z,11.99
2019-05-01T04:30:40.073Z,12.02
2019-05-01T04:31:40.070Z,11.96
2019-05-01T04:32:52.164Z,11.94
2019-05-01T04:33:40.025Z,11.96
2019-05-01T04:34:39.831Z,12.02
2019-05-01T04:35:39.830Z,11.97
2019-05-01T04:36:39.716Z,12.04
2019-05-01T04:37:39.711Z,11.96
2019-05-01T04:38:39.595Z,11.93
2019-05-01T04:39:39.592Z,11.97
2019-05-01T04:40:39.475Z,11.97
2019-05-01T04:41:39.473Z,11.94
2019-05-01T04:42:39.473Z,11.97
2019-05-01T04:43:39.355Z,12.01
2019-05-01T04:44:39.355Z,11.99
2019-05-01T04:45:39.235Z,11.97
2019-05-01T04:46:39.235Z,11.97
2019-05-01T04:47:39.121Z,11.97
2019-05-01T04:48:39.129Z,11.90
2019-05-01T04:49:38.999Z,11.99
2019-05-01T04:50:38.998Z,11.99
2019-05-01T04:51:38.880Z,11.93
2019-05-01T04:52:38.878Z,12.02
2019-05-01T04:53:38.761Z,12.01
2019-05-01T04:54:38.757Z,11.94
2019-05-01T04:55:38.642Z,11.87
2019-05-01T04:56:38.639Z,11.90
2019-05-01T04:57:38.531Z,11.87
2019-05-01T04:58:38.520Z,11.96
2019-05-01T04:59:38.410Z,11.93
2019-05-01T05:00:38.401Z,11.97
2019-05-01T05:01:38.290Z,12.05
2019-05-01T05:02:38.283Z,11.96
2019-05-01T05:03:38.166Z,11.90
2019-05-01T05:04:38.163Z,11.87
2019-05-01T05:05:38.165Z,11.97
2019-05-01T05:06:38.045Z,11.94
2019-05-01T05:07:38.045Z,11.94
2019-05-01T05:08:37.926Z,11.94
2019-05-01T05:09:37.926Z,11.94
2019-05-01T05:10:37.807Z,11.85
2019-05-01T05:11:37.808Z,11.90
2019-05-01T05:12:37.689Z,11.97
2019-05-01T05:13:37.687Z,11.94
2019-05-01T05:14:37.570Z,11.99
2019-05-01T05:15:37.569Z,11.99
2019-05-01T05:16:37.451Z,11.94
2019-05-01T05:17:37.450Z,11.87
2019-05-01T05:18:37.333Z,11.85
2019-05-01T05:19:37.331Z,11.94
2019-05-01T05:20:37.214Z,11.90
2019-05-01T05:21:37.211Z,11.85
2019-05-01T05:22:37.096Z,11.85
2019-05-01T05:23:37.093Z,11.85
2019-05-01T05:24:36.977Z,11.87
2019-05-01T05:25:36.973Z,11.83
2019-05-01T05:26:36.857Z,11.86
2019-05-01T05:27:36.855Z,12.01
2019-05-01T05:28:36.738Z,11.99
2019-05-01T05:29:36.737Z,11.93
2019-05-01T05:30:36.771Z,11.87
2019-05-01T05:31:36.621Z,11.86
2019-05-01T05:32:36.622Z,11.90
2019-05-01T05:33:37.460Z,11.83
2019-05-01T05:34:36.499Z,11.89
2019-05-01T05:35:36.379Z,11.93
2019-05-01T05:36:36.382Z,11.89
2019-05-01T05:37:36.266Z,11.86
2019-05-01T05:38:36.260Z,11.87
2019-05-01T05:39:36.142Z,11.85
2019-05-01T05:40:36.140Z,11.94
2019-05-01T05:41:36.026Z,11.86
2019-05-01T05:42:36.021Z,11.86
2019-05-01T05:43:35.905Z,11.89
2019-05-01T05:44:35.902Z,11.99
2019-05-01T05:45:35.793Z,11.93
2019-05-01T05:46:35.787Z,11.90
2019-05-01T05:47:35.668Z,11.94
2019-05-01T05:48:35.667Z,11.94
2019-05-01T05:49:35.550Z,11.96
2019-05-01T05:50:35.544Z,11.97
2019-05-01T05:51:35.429Z,12.01
2019-05-01T05:52:35.426Z,11.96
2019-05-01T05:53:35.309Z,11.93
2019-05-01T05:54:35.307Z,11.99
2019-05-01T05:55:35.306Z,11.94
2019-05-01T05:56:35.188Z,11.90
2019-05-01T05:57:35.188Z,11.96
2019-05-01T05:58:35.074Z,11.97
2019-05-01T05:59:35.069Z,11.94
2019-05-01T06:00:34.952Z,11.99
2019-05-01T06:01:34.952Z,12.02
2019-05-01T06:02:34.833Z,12.05
2019-05-01T06:03:35.221Z,12.05
2019-05-01T06:04:34.714Z,12.01
2019-05-01T06:05:34.712Z,11.96
2019-05-01T06:06:34.596Z,12.06
2019-05-01T06:07:34.593Z,12.05
2019-05-01T06:08:34.476Z,11.94
2019-05-01T06:09:34.475Z,11.96
2019-05-01T06:10:34.358Z,11.89
2019-05-01T06:11:35.478Z,12.02
2019-05-01T06:12:37.109Z,12.05
2019-05-01T06:13:34.236Z,12.05
2019-05-01T06:14:34.120Z,11.97
2019-05-01T06:15:36.664Z,11.99
2019-05-01T06:16:34.000Z,12.09
2019-05-01T06:17:34.001Z,12.08
2019-05-01T06:18:34.800Z,12.05
2019-05-01T06:19:33.880Z,12.06
2019-05-01T06:20:33.879Z,12.06
2019-05-01T06:21:34.784Z,12.04
2019-05-01T06:22:33.760Z,12.09
2019-05-01T06:23:34.426Z,12.09
2019-05-01T06:24:35.735Z,12.04
2019-05-01T06:25:33.523Z,12.02
2019-05-01T06:26:37.547Z,12.09
2019-05-01T06:27:33.404Z,12.05
2019-05-01T06:28:33.404Z,12.08
2019-05-01T06:29:35.772Z,12.05
2019-05-01T06:30:33.287Z,12.15
2019-05-01T06:31:33.168Z,12.05
2019-05-01T06:32:33.807Z,12.15
2019-05-01T06:33:43.855Z,12.20
2019-05-01T06:34:33.046Z,12.12
2019-05-01T06:35:37.674Z,12.12
2019-05-01T06:36:32.927Z,12.05
2019-05-01T06:37:32.811Z,12.12
2019-05-01T06:38:36.165Z,12.19
2019-05-01T06:39:32.697Z,12.12
2019-05-01T06:40:32.691Z,12.24
2019-05-01T06:41:33.807Z,12.13
2019-05-01T06:42:32.570Z,12.19
2019-05-01T06:43:32.458Z,12.15
2019-05-01T06:44:33.493Z,12.16
2019-05-01T06:45:32.452Z,12.15
2019-05-01T06:46:35.256Z,12.23
2019-05-01T06:47:32.338Z,12.26
2019-05-01T06:48:33.417Z,12.19
2019-05-01T06:49:32.215Z,12.23
2019-05-01T06:50:32.377Z,12.23
2019-05-01T06:51:32.094Z,12.19
2019-05-01T06:52:31.977Z,12.23
2019-05-01T06:53:36.107Z,12.19
2019-05-01T06:54:31.861Z,12.24
2019-05-01T06:55:31.855Z,12.20
2019-05-01T06:56:31.739Z,12.24
2019-05-01T06:57:31.740Z,12.29
2019-05-01T06:58:32.808Z,12.21
2019-05-01T06:59:33.225Z,12.27
2019-05-01T07:00:31.501Z,12.31
2019-05-01T07:01:31.499Z,12.24
2019-05-01T07:02:35.095Z,12.33
2019-05-01T07:03:31.385Z,12.33
2019-05-01T07:04:32.468Z,12.30
2019-05-01T07:05:31.261Z,12.30
2019-05-01T07:06:32.885Z,12.33
2019-05-01T07:07:31.141Z,12.37
2019-05-01T07:08:34.299Z,12.34
2019-05-01T07:09:31.023Z,12.30
2019-05-01T07:10:43.183Z,12.37
2019-05-01T07:11:30.943Z,12.31
2019-05-01T07:12:30.905Z,12.38
2019-05-01T07:13:30.786Z,12.39
2019-05-01T07:14:30.785Z,12.37
2019-05-01T07:15:30.667Z,12.38
2019-05-01T07:16:33.078Z,12.33
2019-05-01T07:17:30.550Z,12.30
2019-05-01T07:18:30.547Z,12.34
2019-05-01T07:19:30.430Z,12.37
2019-05-01T07:20:30.428Z,12.38
2019-05-01T07:21:32.542Z,12.34
2019-05-01T07:22:30.308Z,12.38
2019-05-01T07:23:30.193Z,12.37
2019-05-01T07:24:30.191Z,12.39
2019-05-01T07:25:30.073Z,12.29
2019-05-01T07:26:30.071Z,12.39
2019-05-01T07:27:29.955Z,12.33
2019-05-01T07:28:34.365Z,12.33
2019-05-01T07:29:32.687Z,12.39
2019-05-01T07:30:29.838Z,12.38
2019-05-01T07:31:31.025Z,12.34
2019-05-01T07:32:29.715Z,12.39
2019-05-01T07:33:29.715Z,12.27
2019-05-01T07:34:29.597Z,12.26
2019-05-01T07:35:32.939Z,12.37
2019-05-01T07:36:29.478Z,12.34
2019-05-01T07:37:29.478Z,12.31
2019-05-01T07:38:33.032Z,12.51
2019-05-01T07:39:29.358Z,12.31
2019-05-01T07:40:30.231Z,12.45
2019-05-01T07:41:29.238Z,12.44
2019-05-01T07:42:29.121Z,12.46
2019-05-01T07:43:29.119Z,12.42
2019-05-01T07:44:29.956Z,12.45
2019-05-01T07:45:29.000Z,12.42
2019-05-01T07:46:29.485Z,12.51
2019-05-01T07:47:30.500Z,12.51
2019-05-01T07:48:28.764Z,12.46
2019-05-01T07:49:28.762Z,12.42
2019-05-01T07:50:31.888Z,12.44
2019-05-01T07:51:28.642Z,12.52
2019-05-01T07:52:28.529Z,12.44
2019-05-01T07:53:29.457Z,12.41
2019-05-01T07:54:28.407Z,12.48
2019-05-01T07:55:28.404Z,12.49
2019-05-01T07:56:29.973Z,12.57
2019-05-01T07:57:28.286Z,12.60
2019-05-01T07:58:28.287Z,12.54
2019-05-01T07:59:28.781Z,12.59
2019-05-01T08:00:28.167Z,12.57
2019-05-01T08:01:28.049Z,12.57
2019-05-01T08:02:30.967Z,12.62
2019-05-01T08:03:27.933Z,12.62
2019-05-01T08:04:35.736Z,12.60
2019-05-01T08:05:28.530Z,12.52
2019-05-01T08:06:27.810Z,12.59
2019-05-01T08:07:32.028Z,12.62
2019-05-01T08:08:27.691Z,12.56
2019-05-01T08:09:27.578Z,12.69
2019-05-01T08:10:31.489Z,12.59
2019-05-01T08:11:27.455Z,12.69
2019-05-01T08:12:27.453Z,12.70
2019-05-01T08:13:30.628Z,12.59
2019-05-01T08:14:27.334Z,12.59
2019-05-01T08:15:32.286Z,12.62
2019-05-01T08:16:27.215Z,12.71
2019-05-01T08:17:27.100Z,12.59
2019-05-01T08:18:27.984Z,12.62
2019-05-01T08:19:27.096Z,12.66
2019-05-01T08:20:26.977Z,12.63
2019-05-01T08:21:27.580Z,12.67
2019-05-01T08:22:26.859Z,12.67
2019-05-01T08:23:26.858Z,12.64
2019-05-01T08:24:26.741Z,12.69
2019-05-01T08:25:28.696Z,12.67
2019-05-01T08:26:26.623Z,12.77
2019-05-01T08:27:26.621Z,12.79
2019-05-01T08:28:27.664Z,12.71
2019-05-01T08:29:26.501Z,12.70
2019-05-01T08:30:26.385Z,12.77
2019-05-01T08:31:27.773Z,12.84
2019-05-01T08:32:26.266Z,12.85
2019-05-01T08:33:26.267Z,12.75
2019-05-01T08:34:26.611Z,12.78
2019-05-01T08:35:26.146Z,12.69
2019-05-01T08:36:26.029Z,12.75
2019-05-01T08:37:27.230Z,12.70
2019-05-01T08:38:29.729Z,12.79
2019-05-01T08:39:25.905Z,12.84
2019-05-01T08:40:25.790Z,12.77
2019-05-01T08:41:26.996Z,12.82
2019-05-01T08:42:25.787Z,12.84
2019-05-01T08:43:25.668Z,12.70
2019-05-01T08:44:29.676Z,12.79
2019-05-01T08:45:25.549Z,12.79
2019-05-01T08:46:25.549Z,12.81
2019-05-01T08:47:26.264Z,12.77
2019-05-01T08:48:25.433Z,12.85
2019-05-01T08:49:25.314Z,12.87
2019-05-01T08:50:26.041Z,12.87
2019-05-01T08:51:25.198Z,12.92
2019-05-01T08:52:25.192Z,12.84
2019-05-01T08:53:25.075Z,12.92
2019-05-01T08:54:28.898Z,12.85
2019-05-01T08:55:24.957Z,12.92
2019-05-01T08:56:24.955Z,12.87
2019-05-01T08:57:29.093Z,12.87
2019-05-01T08:58:24.835Z,12.97
2019-05-01T08:59:25.834Z,12.92
2019-05-01T09:00:24.717Z,12.97
2019-05-01T09:01:24.599Z,13.02
2019-05-01T09:02:24.599Z,12.96
2019-05-01T09:03:24.484Z,12.96
2019-05-01T09:04:25.374Z,12.96
2019-05-01T09:05:28.769Z,12.97
2019-05-01T09:06:34.285Z,12.93
2019-05-01T09:07:24.359Z,12.99
2019-05-01T09:08:27.223Z,13.02
2019-05-01T09:09:24.241Z,13.04
2019-05-01T09:10:24.123Z,13.06
2019-05-01T09:11:24.121Z,13.04
2019-05-01T09:12:24.005Z,13.09
2019-05-01T09:13:24.882Z,13.02
2019-05-01T09:14:23.887Z,13.02
2019-05-01T09:15:23.884Z,13.02
2019-05-01T09:16:28.454Z,13.06
2019-05-01T09:17:23.765Z,13.07
2019-05-01T09:18:23.648Z,13.14
2019-05-01T09:19:23.647Z,13.12
2019-05-01T09:20:23.533Z,13.07
2019-05-01T09:21:23.525Z,13.11
2019-05-01T09:22:23.409Z,13.06
2019-05-01T09:23:23.410Z,13.17
2019-05-01T09:24:27.858Z,13.12
2019-05-01T09:25:23.292Z,13.17
2019-05-01T09:26:23.290Z,13.15
2019-05-01T09:27:23.731Z,13.11
2019-05-01T09:28:23.169Z,13.15
2019-05-01T09:29:23.053Z,13.15
2019-05-01T09:30:26.750Z,13.20
2019-05-01T09:31:22.932Z,13.17
2019-05-01T09:32:22.935Z,13.11
2019-05-01T09:33:26.111Z,13.12
2019-05-01T09:34:22.812Z,13.14
2019-05-01T09:35:22.696Z,13.12
2019-05-01T09:36:22.693Z,13.11
2019-05-01T09:37:22.584Z,13.20
2019-05-01T09:38:22.574Z,13.22
2019-05-01T09:39:22.457Z,13.15
2019-05-01T09:40:22.455Z,13.12
2019-05-01T09:41:22.339Z,13.18
2019-05-01T09:42:23.883Z,13.17
2019-05-01T09:43:22.223Z,13.24
2019-05-01T09:44:22.218Z,13.20
2019-05-01T09:45:22.219Z,13.24
2019-05-01T09:46:22.098Z,13.21
2019-05-01T09:47:22.101Z,13.20
2019-05-01T09:48:21.981Z,13.22
2019-05-01T09:49:21.979Z,13.22
2019-05-01T09:50:25.747Z,13.32
2019-05-01T09:51:21.861Z,13.32
2019-05-01T09:52:23.318Z,13.32
2019-05-01T09:53:21.742Z,13.38
2019-05-01T09:54:21.624Z,13.30
2019-05-01T09:55:23.027Z,13.29
2019-05-01T09:56:21.506Z,13.40
2019-05-01T09:57:21.503Z,13.32
2019-05-01T09:58:21.386Z,13.37
2019-05-01T09:59:21.386Z,13.40
2019-05-01T10:00:21.268Z,13.44
2019-05-01T10:01:24.049Z,13.46
2019-05-01T10:02:21.149Z,13.46
2019-05-01T10:03:21.146Z,13.46
2019-05-01T10:04:21.030Z,13.43
2019-05-01T10:05:28.645Z,13.47
2019-05-01T10:06:21.029Z,13.51
2019-05-01T10:07:23.748Z,13.43
2019-05-01T10:08:20.910Z,13.46
2019-05-01T10:09:20.790Z,13.47
2019-05-01T10:10:24.766Z,13.49
2019-05-01T10:11:20.680Z,13.49
2019-05-01T10:12:20.671Z,13.49
2019-05-01T10:13:22.528Z,13.49
2019-05-01T10:14:20.552Z,13.46
2019-05-01T10:15:20.434Z,13.46
2019-05-01T10:16:20.433Z,13.52
2019-05-01T10:17:20.316Z,13.55
2019-05-01T10:18:20.313Z,13.51
2019-05-01T10:19:20.202Z,13.52
2019-05-01T10:20:20.194Z,13.52
2019-05-01T10:21:22.355Z,13.51
2019-05-01T10:22:20.077Z,13.56
2019-05-01T10:23:19.960Z,13.52
2019-05-01T10:24:19.958Z,13.55
2019-05-01T10:25:19.840Z,13.59
2019-05-01T10:26:23.946Z,13.54
2019-05-01T10:27:19.838Z,13.58
2019-05-01T10:28:19.721Z,13.55
2019-05-01T10:29:21.427Z,13.59
2019-05-01T10:30:19.601Z,13.55
2019-05-01T10:31:19.603Z,13.59
2019-05-01T10:32:21.637Z,13.59
2019-05-01T10:33:19.481Z,13.58
2019-05-01T10:34:19.364Z,13.55
2019-05-01T10:35:20.978Z,13.56
2019-05-01T10:36:20.618Z,13.69
2019-05-01T10:37:19.243Z,13.69
2019-05-01T10:38:19.126Z,13.65
2019-05-01T10:39:19.777Z,13.65
2019-05-01T10:40:19.007Z,13.63
2019-05-01T10:41:19.004Z,13.65
2019-05-01T10:42:18.888Z,13.70
2019-05-01T10:43:18.886Z,13.69
2019-05-01T10:44:18.778Z,13.70
2019-05-01T10:45:18.766Z,13.69
2019-05-01T10:46:18.767Z,13.67
2019-05-01T10:47:18.648Z,13.76
2019-05-01T10:48:18.653Z,13.73
2019-05-01T10:49:18.531Z,13.77
2019-05-01T10:50:18.529Z,13.71
2019-05-01T10:51:18.420Z,13.76
2019-05-01T10:52:18.423Z,13.76
2019-05-01T10:53:18.294Z,13.70
2019-05-01T10:54:18.292Z,13.81
2019-05-01T10:55:18.174Z,13.71
2019-05-01T10:56:18.176Z,13.81
2019-05-01T10:57:18.059Z,13.83
2019-05-01T10:58:20.233Z,13.80
2019-05-01T10:59:17.936Z,13.80
2019-05-01T11:00:17.934Z,13.83
2019-05-01T11:01:17.817Z,13.84
2019-05-01T11:02:17.815Z,13.87
2019-05-01T11:03:17.698Z,13.89
2019-05-01T11:04:17.696Z,13.87
2019-05-01T11:05:17.696Z,13.87
2019-05-01T11:06:17.579Z,13.87
2019-05-01T11:07:17.591Z,13.81
2019-05-01T11:08:17.460Z,13.83
2019-05-01T11:09:17.458Z,13.84
2019-05-01T11:10:17.341Z,13.80
2019-05-01T11:11:17.343Z,13.80
2019-05-01T11:12:17.222Z,13.94
2019-05-01T11:13:17.220Z,13.84
2019-05-01T11:14:17.106Z,13.89
2019-05-01T11:15:17.102Z,13.84
2019-05-01T11:16:16.985Z,13.87
2019-05-01T11:17:16.983Z,13.95
2019-05-01T11:18:16.866Z,13.89
2019-05-01T11:19:16.862Z,13.89
2019-05-01T11:20:16.746Z,13.89
2019-05-01T11:21:16.745Z,13.87
2019-05-01T11:22:16.745Z,13.95
2019-05-01T11:23:16.627Z,13.96
2019-05-01T11:24:16.625Z,13.98
2019-05-01T11:25:16.513Z,14.01
2019-05-01T11:26:16.507Z,13.96
2019-05-01T11:27:16.389Z,13.99
2019-05-01T11:28:16.388Z,14.09
2019-05-01T11:29:16.271Z,14.02
2019-05-01T11:30:16.269Z,13.99
2019-05-01T11:31:16.152Z,14.09
2019-05-01T11:32:16.150Z,14.10
2019-05-01T11:33:16.033Z,14.09
2019-05-01T11:34:16.031Z,14.10
2019-05-01T11:35:15.913Z,13.98
2019-05-01T11:36:15.912Z,14.07
2019-05-01T11:37:15.795Z,14.02
2019-05-01T11:38:15.794Z,14.09
2019-05-01T11:39:15.676Z,14.10
2019-05-01T11:40:15.673Z,13.95
2019-05-01T11:41:15.678Z,14.09
2019-05-01T11:42:15.556Z,14.10
2019-05-01T11:43:15.554Z,13.99
2019-05-01T11:44:15.437Z,14.10
2019-05-01T11:45:15.436Z,14.12
2019-05-01T11:46:15.318Z,14.09
2019-05-01T11:47:15.316Z,14.06
2019-05-01T11:48:15.200Z,14.10
2019-05-01T11:49:15.198Z,14.04
2019-05-01T11:50:15.082Z,14.10
2019-05-01T11:51:15.079Z,14.06
2019-05-01T11:52:14.962Z,14.04
2019-05-01T11:53:14.960Z,14.10
2019-05-01T11:54:14.848Z,14.07
2019-05-01T11:55:14.841Z,14.10
2019-05-01T11:56:14.726Z,14.12
2019-05-01T11:57:14.721Z,14.06
2019-05-01T11:58:14.730Z,14.10
2019-05-01T11:59:14.605Z,14.13
2019-05-01T12:00:14.603Z,14.10
2019-05-01T12:01:14.485Z,14.13
2019-05-01T12:02:14.485Z,14.10
2019-05-01T12:03:14.368Z,14.13
2019-05-01T12:04:14.365Z,14.19
2019-05-01T12:05:14.249Z,14.17
2019-05-01T12:06:22.750Z,14.19
2019-05-01T12:07:14.130Z,14.24
2019-05-01T12:08:14.127Z,14.20
2019-05-01T12:09:14.010Z,14.16
2019-05-01T12:10:14.434Z,14.20
2019-05-01T12:11:13.894Z,14.28
2019-05-01T12:12:13.889Z,14.28
2019-05-01T12:13:13.890Z,14.29
2019-05-01T12:14:13.770Z,14.34
2019-05-01T12:15:13.771Z,14.39
2019-05-01T12:16:13.661Z,14.50
2019-05-01T12:17:13.652Z,14.60
2019-05-01T12:18:13.533Z,14.67
2019-05-01T12:19:13.534Z,14.68
2019-05-01T12:20:13.416Z,14.86
2019-05-01T12:21:13.414Z,14.91
2019-05-01T12:22:13.364Z,15.01
2019-05-01T12:23:13.294Z,15.06
2019-05-01T12:24:13.181Z,15.01
2019-05-01T12:25:13.180Z,15.06
2019-05-01T12:26:13.098Z,15.11
2019-05-01T12:27:13.056Z,15.21
2019-05-01T12:28:12.941Z,15.20
2019-05-01T12:29:12.939Z,15.31
2019-05-01T12:30:12.822Z,15.33
2019-05-01T12:31:12.819Z,15.38
2019-05-01T12:32:12.819Z,15.36
2019-05-01T12:33:12.700Z,15.42
2019-05-01T12:34:12.699Z,15.46
2019-05-01T12:35:12.584Z,15.48
2019-05-01T12:36:12.580Z,15.54
2019-05-01T12:37:12.464Z,15.63
2019-05-01T12:38:12.462Z,15.59
2019-05-01T12:39:12.348Z,15.61
2019-05-01T12:40:12.342Z,15.63
2019-05-01T12:41:12.226Z,15.60
2019-05-01T12:42:12.225Z,15.72
2019-05-01T12:43:12.460Z,15.74
2019-05-01T12:44:12.106Z,15.68
2019-05-01T12:45:12.106Z,15.82
2019-05-01T12:46:11.987Z,15.84
2019-05-01T12:47:11.990Z,15.85
2019-05-01T12:48:11.870Z,15.93
2019-05-01T12:49:11.921Z,15.86
2019-05-01T12:50:11.750Z,15.97
2019-05-01T12:51:11.748Z,15.94
2019-05-01T12:52:11.631Z,16.04